createdAt,value
2017-07-31T00:01:06.570Z,99.99
2017-07-31T00:02:16.097Z,99.99
2017-07-31T00:03:25.330Z,99.99
2017-07-31T00:04:34.684Z,99.99
2017-07-31T00:05:43.583Z,99.99
2017-07-31T00:06:52.469Z,99.99
2017-07-31T00:08:01.996Z,99.99
2017-07-31T00:09:11.201Z,99.99
2017-07-31T00:10:21.356Z,99.99
2017-07-31T00:11:30.885Z,99.99
2017-07-31T00:12:40.090Z,99.99
2017-07-31T00:13:48.975Z,99.99
2017-07-31T00:14:58.180Z,99.99
2017-07-31T00:16:07.590Z,99.99
2017-07-31T00:17:16.798Z,99.99
2017-07-31T00:18:26.326Z,99.99
2017-07-31T00:19:36.178Z,99.99
2017-07-31T00:20:45.386Z,99.99
2017-07-31T00:21:55.063Z,99.99
2017-07-31T00:23:04.918Z,99.99
2017-07-31T00:24:14.770Z,99.99
2017-07-31T00:25:23.981Z,99.99
2017-07-31T00:26:33.512Z,99.99
2017-07-31T00:27:43.439Z,99.99
2017-07-31T00:28:52.967Z,99.99
2017-07-31T00:30:02.179Z,99.99
2017-07-31T00:31:11.711Z,99.99
2017-07-31T00:32:21.238Z,99.99
2017-07-31T00:33:30.866Z,99.99
2017-07-31T00:34:40.718Z,99.99
2017-07-31T00:35:49.925Z,99.99
2017-07-31T00:36:59.446Z,99.99
2017-07-31T00:38:08.974Z,99.99
2017-07-31T00:39:18.826Z,99.99
2017-07-31T00:40:28.032Z,99.99
2017-07-31T00:41:37.239Z,99.99
2017-07-31T00:42:46.123Z,99.99
2017-07-31T00:43:55.976Z,99.99
2017-07-31T00:45:04.914Z,99.99
2017-07-31T00:46:14.125Z,99.99
2017-07-31T00:47:23.334Z,99.99
2017-07-31T00:48:33.179Z,99.99
2017-07-31T00:49:42.380Z,99.99
2017-07-31T00:50:52.058Z,99.99
2017-07-31T00:52:00.939Z,99.99
2017-07-31T00:53:10.464Z,99.99
2017-07-31T00:54:19.351Z,99.99
2017-07-31T00:55:28.565Z,99.99
2017-07-31T00:56:37.930Z,99.99
2017-07-31T00:57:47.457Z,99.99
2017-07-31T00:58:56.984Z,99.99
2017-07-31T01:00:06.517Z,99.99
2017-07-31T01:01:15.729Z,99.99
2017-07-31T01:02:25.257Z,99.99
2017-07-31T01:03:34.463Z,99.99
2017-07-31T01:04:43.997Z,99.99
2017-07-31T01:05:53.200Z,99.99
2017-07-31T01:07:02.736Z,99.99
2017-07-31T01:08:12.587Z,99.99
2017-07-31T01:09:21.790Z,99.99
2017-07-31T01:10:30.994Z,99.99
2017-07-31T01:11:40.216Z,99.99
2017-07-31T01:12:49.748Z,99.99
2017-07-31T01:13:58.999Z,99.99
2017-07-31T01:15:08.538Z,99.99
2017-07-31T01:16:18.438Z,99.99
2017-07-31T01:17:27.321Z,99.99
2017-07-31T01:18:36.850Z,99.99
2017-07-31T01:19:45.735Z,99.99
2017-07-31T01:20:54.949Z,99.99
2017-07-31T01:22:04.801Z,99.99
2017-07-31T01:23:14.009Z,99.99
2017-07-31T01:24:23.537Z,99.99
2017-07-31T01:25:32.790Z,99.99
2017-07-31T01:26:42.321Z,99.99
2017-07-31T01:27:51.521Z,99.99
2017-07-31T01:29:00.725Z,99.99
2017-07-31T01:30:09.932Z,99.99
2017-07-31T01:31:19.937Z,99.99
2017-07-31T01:32:29.142Z,99.99
2017-07-31T01:33:38.347Z,99.99
2017-07-31T01:34:48.200Z,99.99
2017-07-31T01:35:58.044Z,99.99
2017-07-31T01:37:07.897Z,99.99
2017-07-31T01:38:17.748Z,99.99
2017-07-31T01:39:27.281Z,99.99
2017-07-31T01:40:37.458Z,99.99
2017-07-31T01:41:47.015Z,99.99
2017-07-31T01:42:56.541Z,99.99
2017-07-31T01:44:06.071Z,99.99
2017-07-31T01:45:15.281Z,99.99
2017-07-31T01:46:24.485Z,99.99
2017-07-31T01:47:33.366Z,99.99
2017-07-31T01:48:42.573Z,99.99
2017-07-31T01:49:51.779Z,99.99
2017-07-31T01:51:01.309Z,99.99
2017-07-31T01:52:11.160Z,99.99
2017-07-31T01:53:20.370Z,99.99
2017-07-31T01:54:29.405Z,99.99
2017-07-31T01:55:38.611Z,99.99
2017-07-31T01:56:48.465Z,99.99
2017-07-31T01:57:57.995Z,99.99
2017-07-31T01:59:07.224Z,99.99
2017-07-31T02:00:16.733Z,99.99
2017-07-31T02:01:26.583Z,99.99
2017-07-31T02:02:35.788Z,99.99
2017-07-31T02:03:45.321Z,99.99
2017-07-31T02:04:54.207Z,99.99
2017-07-31T02:06:04.687Z,99.99
2017-07-31T02:07:13.894Z,99.99
2017-07-31T02:08:23.100Z,99.99
2017-07-31T02:09:31.983Z,99.99
2017-07-31T02:10:41.192Z,99.99
2017-07-31T02:11:51.477Z,99.99
2017-07-31T02:13:01.325Z,99.99
2017-07-31T02:14:10.531Z,99.99
2017-07-31T02:15:19.411Z,99.99
2017-07-31T02:16:28.940Z,99.99
2017-07-31T02:17:38.523Z,99.99
2017-07-31T02:18:48.055Z,99.99
2017-07-31T02:19:57.261Z,99.99
2017-07-31T02:21:06.475Z,99.99
2017-07-31T02:22:16.008Z,99.99
2017-07-31T02:23:26.079Z,99.99
2017-07-31T02:24:35.288Z,99.99
2017-07-31T02:25:44.170Z,99.99
2017-07-31T02:26:54.348Z,99.99
2017-07-31T02:28:04.198Z,99.99
2017-07-31T02:29:14.050Z,99.99
2017-07-31T02:30:23.581Z,99.99
2017-07-31T02:31:33.434Z,99.99
2017-07-31T02:32:43.621Z,99.99
2017-07-31T02:33:52.826Z,99.99
2017-07-31T02:35:02.779Z,99.99
2017-07-31T02:36:12.348Z,99.99
2017-07-31T02:37:21.880Z,99.99
2017-07-31T02:38:31.422Z,99.99
2017-07-31T02:39:40.950Z,99.99
2017-07-31T02:40:50.513Z,99.99
2017-07-31T02:41:59.402Z,99.99
2017-07-31T02:43:08.613Z,99.99
2017-07-31T02:44:17.823Z,99.99
2017-07-31T02:45:27.031Z,99.99
2017-07-31T02:46:36.710Z,99.99
2017-07-31T02:47:45.917Z,99.99
2017-07-31T02:48:56.096Z,99.99
2017-07-31T02:50:04.991Z,99.99
2017-07-31T02:51:15.192Z,99.99
2017-07-31T02:52:24.548Z,99.99
2017-07-31T02:53:33.755Z,99.99
2017-07-31T02:54:44.252Z,99.99
2017-07-31T02:55:53.132Z,99.99
2017-07-31T02:57:02.373Z,99.99
2017-07-31T02:58:11.727Z,99.99
2017-07-31T02:59:20.931Z,99.99
2017-07-31T03:00:30.469Z,99.99
2017-07-31T03:01:40.973Z,99.99
2017-07-31T03:02:50.184Z,99.99
2017-07-31T03:03:59.391Z,99.99
2017-07-31T03:05:08.917Z,99.99
2017-07-31T03:06:17.799Z,99.99
2017-07-31T03:07:27.654Z,99.99
2017-07-31T03:08:37.833Z,99.99
2017-07-31T03:09:46.712Z,99.99
2017-07-31T03:10:56.244Z,99.99
2017-07-31T03:12:05.773Z,99.99
2017-07-31T03:13:15.304Z,99.99
2017-07-31T03:14:25.156Z,99.99
2017-07-31T03:15:35.009Z,99.99
2017-07-31T03:16:44.544Z,99.99
2017-07-31T03:17:53.751Z,99.99
2017-07-31T03:19:02.959Z,99.99
2017-07-31T03:20:12.170Z,99.99
2017-07-31T03:21:21.103Z,99.99
2017-07-31T03:22:30.306Z,99.99
2017-07-31T03:23:39.516Z,99.99
2017-07-31T03:24:48.399Z,99.99
2017-07-31T03:25:57.281Z,99.99
2017-07-31T03:27:06.861Z,99.99
2017-07-31T03:28:16.718Z,99.99
2017-07-31T03:29:25.924Z,99.99
2017-07-31T03:30:35.785Z,99.99
2017-07-31T03:31:45.964Z,99.99
2017-07-31T03:32:55.550Z,99.99
2017-07-31T03:34:04.432Z,99.99
2017-07-31T03:35:14.282Z,99.99
2017-07-31T03:36:23.484Z,99.99
2017-07-31T03:37:33.011Z,99.99
2017-07-31T03:38:43.160Z,99.99
2017-07-31T03:39:53.015Z,99.99
2017-07-31T03:41:02.232Z,99.99
2017-07-31T03:42:11.766Z,99.99
2017-07-31T03:43:21.299Z,99.99
2017-07-31T03:44:31.127Z,99.99
2017-07-31T03:45:40.330Z,99.99
2017-07-31T03:46:49.858Z,99.99
2017-07-31T03:47:59.401Z,99.99
2017-07-31T03:49:08.928Z,99.99
2017-07-31T03:50:18.833Z,99.99
2017-07-31T03:51:28.361Z,99.99
2017-07-31T03:52:37.565Z,99.99
2017-07-31T03:53:46.447Z,99.99
2017-07-31T03:54:55.982Z,99.99
2017-07-31T03:56:05.613Z,99.99
2017-07-31T03:57:15.145Z,99.99
2017-07-31T03:58:24.350Z,99.99
2017-07-31T03:59:33.556Z,99.99
2017-07-31T04:00:43.093Z,99.99
2017-07-31T04:01:52.928Z,99.99
2017-07-31T04:03:02.462Z,99.99
2017-07-31T04:04:11.989Z,99.99
2017-07-31T04:05:21.516Z,99.99
2017-07-31T04:06:31.062Z,99.99
2017-07-31T04:07:40.914Z,99.99
2017-07-31T04:08:50.442Z,99.99
2017-07-31T04:09:59.341Z,99.99
2017-07-31T04:11:08.874Z,99.99
2017-07-31T04:12:18.743Z,99.99
2017-07-31T04:13:28.001Z,99.99
2017-07-31T04:14:37.530Z,99.99
2017-07-31T04:15:46.732Z,99.99
2017-07-31T04:16:55.938Z,99.99
2017-07-31T04:18:04.819Z,99.99
2017-07-31T04:19:13.849Z,99.99
2017-07-31T04:20:23.700Z,99.99
2017-07-31T04:21:32.906Z,99.99
2017-07-31T04:22:42.486Z,99.99
2017-07-31T04:23:52.012Z,99.99
2017-07-31T04:25:01.373Z,99.99
2017-07-31T04:26:10.898Z,99.99
2017-07-31T04:27:20.756Z,99.99
2017-07-31T04:28:29.652Z,99.99
2017-07-31T04:29:39.178Z,99.99
2017-07-31T04:30:48.756Z,99.99
2017-07-31T04:31:58.278Z,99.99
2017-07-31T04:33:07.804Z,99.99
2017-07-31T04:34:17.334Z,99.99
2017-07-31T04:35:26.869Z,99.99
2017-07-31T04:36:36.717Z,99.99
2017-07-31T04:37:45.604Z,99.99
2017-07-31T04:38:55.456Z,99.99
2017-07-31T04:40:05.306Z,99.99
2017-07-31T04:41:14.840Z,99.99
2017-07-31T04:42:24.348Z,99.99
2017-07-31T04:43:33.875Z,99.99
2017-07-31T04:44:43.401Z,99.99
2017-07-31T04:45:52.924Z,99.99
2017-07-31T04:47:02.465Z,99.99
2017-07-31T04:48:12.326Z,99.99
2017-07-31T04:49:22.177Z,99.99
2017-07-31T04:50:31.382Z,99.99
2017-07-31T04:51:40.263Z,99.99
2017-07-31T04:52:49.810Z,99.99
2017-07-31T04:53:58.991Z,99.99
2017-07-31T04:55:08.196Z,99.99
2017-07-31T04:56:17.402Z,99.99
2017-07-31T04:57:26.605Z,99.99
2017-07-31T04:58:35.489Z,99.99
2017-07-31T04:59:44.841Z,99.99
2017-07-31T05:00:54.049Z,99.99
2017-07-31T05:02:03.902Z,99.99
2017-07-31T05:03:13.433Z,99.99
2017-07-31T05:04:22.971Z,99.99
2017-07-31T05:05:32.489Z,99.99
2017-07-31T05:06:42.015Z,99.99
2017-07-31T05:07:51.548Z,99.99
2017-07-31T05:09:00.429Z,99.99
2017-07-31T05:10:09.979Z,99.99
2017-07-31T05:11:19.011Z,99.99
2017-07-31T05:12:28.538Z,99.99
2017-07-31T05:13:38.082Z,99.99
2017-07-31T05:14:47.608Z,99.99
2017-07-31T05:15:57.139Z,99.99
2017-07-31T05:17:07.291Z,99.99
2017-07-31T05:18:16.495Z,99.99
2017-07-31T05:19:25.705Z,99.99
2017-07-31T05:20:34.602Z,99.99
2017-07-31T05:21:44.129Z,99.99
2017-07-31T05:22:53.813Z,99.99
2017-07-31T05:24:02.694Z,99.99
2017-07-31T05:25:11.897Z,99.99
2017-07-31T05:26:21.424Z,99.99
2017-07-31T05:27:30.636Z,99.99
2017-07-31T05:28:40.633Z,99.99
2017-07-31T05:29:50.162Z,99.99
2017-07-31T05:30:59.689Z,99.99
2017-07-31T05:32:09.217Z,99.99
2017-07-31T05:33:18.749Z,99.99
2017-07-31T05:34:28.281Z,99.99
2017-07-31T05:35:38.456Z,99.99
2017-07-31T05:36:47.985Z,99.99
2017-07-31T05:37:57.194Z,99.99
2017-07-31T05:39:06.400Z,99.99
2017-07-31T05:40:15.657Z,99.99
2017-07-31T05:41:24.869Z,99.99
2017-07-31T05:42:34.717Z,99.99
2017-07-31T05:43:44.245Z,99.99
2017-07-31T05:44:54.100Z,99.99
2017-07-31T05:46:03.037Z,99.99
2017-07-31T05:47:12.242Z,99.99
2017-07-31T05:48:21.778Z,99.99
2017-07-31T05:49:31.638Z,99.99
2017-07-31T05:50:41.176Z,99.99
2017-07-31T05:51:50.065Z,99.99
2017-07-31T05:52:58.966Z,99.99
2017-07-31T05:54:08.175Z,99.99
2017-07-31T05:55:17.379Z,99.99
2017-07-31T05:56:26.919Z,99.99
2017-07-31T05:57:36.781Z,99.99
2017-07-31T05:58:46.065Z,99.99
2017-07-31T05:59:55.666Z,99.99
2017-07-31T06:01:05.633Z,99.99
2017-07-31T06:02:14.587Z,99.99
2017-07-31T06:03:24.139Z,99.99
2017-07-31T06:04:33.995Z,99.99
2017-07-31T06:05:43.848Z,99.99
2017-07-31T06:06:53.709Z,99.99
2017-07-31T06:08:03.243Z,99.99
2017-07-31T06:09:12.778Z,99.99
2017-07-31T06:10:22.310Z,99.99
2017-07-31T06:11:31.843Z,99.99
2017-07-31T06:12:41.374Z,99.99
2017-07-31T06:13:50.909Z,99.99
2017-07-31T06:15:00.440Z,99.99
2017-07-31T06:16:09.647Z,99.99
2017-07-31T06:17:20.043Z,99.99
2017-07-31T06:18:29.249Z,99.99
2017-07-31T06:19:38.789Z,99.99
2017-07-31T06:20:47.674Z,99.99
2017-07-31T06:21:57.202Z,99.99
2017-07-31T06:23:06.485Z,99.99
2017-07-31T06:24:16.090Z,99.99
2017-07-31T06:25:25.305Z,99.99
2017-07-31T06:26:34.838Z,99.99
2017-07-31T06:27:43.734Z,99.99
2017-07-31T06:28:52.718Z,99.99
2017-07-31T06:30:01.925Z,99.99
2017-07-31T06:31:11.462Z,99.99
2017-07-31T06:32:20.670Z,99.99
2017-07-31T06:33:30.199Z,99.99
2017-07-31T06:34:40.050Z,99.99
2017-07-31T06:35:49.588Z,99.99
2017-07-31T06:36:59.117Z,99.99
2017-07-31T06:38:09.300Z,99.99
2017-07-31T06:39:18.511Z,99.99
2017-07-31T06:40:28.191Z,99.99
2017-07-31T06:41:37.404Z,99.99
2017-07-31T06:42:46.288Z,99.99
2017-07-31T06:43:55.505Z,99.99
2017-07-31T06:45:05.034Z,99.99
2017-07-31T06:46:14.344Z,99.99
2017-07-31T06:47:24.197Z,99.99
2017-07-31T06:48:33.405Z,99.99
2017-07-31T06:49:42.615Z,99.99
2017-07-31T06:50:51.822Z,99.99
2017-07-31T06:52:01.133Z,99.99
2017-07-31T06:53:10.336Z,99.99
2017-07-31T06:54:19.223Z,99.99
2017-07-31T06:55:28.119Z,99.99
2017-07-31T06:56:37.658Z,99.99
2017-07-31T06:57:46.644Z,99.99
2017-07-31T06:58:55.852Z,99.99
2017-07-31T07:00:05.384Z,99.99
2017-07-31T07:01:15.238Z,99.99
2017-07-31T07:02:25.095Z,99.99
2017-07-31T07:03:34.136Z,99.99
2017-07-31T07:04:43.996Z,99.99
2017-07-31T07:05:53.211Z,99.99
2017-07-31T07:07:02.096Z,99.99
2017-07-31T07:08:11.627Z,99.99
2017-07-31T07:09:20.842Z,99.99
2017-07-31T07:10:30.704Z,99.99
2017-07-31T07:11:40.237Z,99.99
2017-07-31T07:12:49.452Z,99.99
2017-07-31T07:13:58.332Z,99.99
2017-07-31T07:15:08.015Z,99.99
2017-07-31T07:16:17.555Z,99.99
2017-07-31T07:17:27.104Z,99.99
2017-07-31T07:18:36.329Z,99.99
2017-07-31T07:19:45.859Z,99.99
2017-07-31T07:20:55.547Z,99.99
2017-07-31T07:22:04.431Z,99.99
2017-07-31T07:23:13.643Z,99.99
2017-07-31T07:24:23.176Z,99.99
2017-07-31T07:25:32.391Z,99.99
2017-07-31T07:26:42.427Z,99.99
2017-07-31T07:27:51.636Z,99.99
2017-07-31T07:29:00.527Z,99.99
2017-07-31T07:30:09.741Z,99.99
2017-07-31T07:31:18.627Z,99.99
2017-07-31T07:32:27.528Z,99.99
2017-07-31T07:33:36.423Z,99.99
2017-07-31T07:34:45.965Z,99.99
2017-07-31T07:35:55.176Z,99.99
2017-07-31T07:37:04.397Z,99.99
2017-07-31T07:38:14.079Z,99.99
2017-07-31T07:39:23.615Z,99.99
2017-07-31T07:40:32.503Z,99.99
2017-07-31T07:41:41.715Z,99.99
2017-07-31T07:42:50.927Z,99.99
2017-07-31T07:44:00.708Z,99.99
2017-07-31T07:45:09.920Z,99.99
2017-07-31T07:46:19.132Z,99.99
2017-07-31T07:47:28.351Z,99.99
2017-07-31T07:48:37.580Z,99.99
2017-07-31T07:49:46.989Z,99.99
2017-07-31T07:50:56.200Z,99.99
2017-07-31T07:52:05.429Z,99.99
2017-07-31T07:53:14.962Z,99.99
2017-07-31T07:54:24.185Z,99.99
2017-07-31T07:55:33.617Z,99.99
2017-07-31T07:56:42.506Z,99.99
2017-07-31T07:57:51.390Z,99.99
2017-07-31T07:59:00.605Z,99.99
2017-07-31T08:00:10.472Z,99.99
2017-07-31T08:01:20.006Z,99.49
2017-07-31T08:02:29.537Z,96.22
2017-07-31T08:03:38.745Z,95.74
2017-07-31T08:04:48.290Z,98.63
2017-07-31T08:05:57.521Z,95.55
2017-07-31T08:07:07.033Z,95.07
2017-07-31T08:08:15.973Z,94.97
2017-07-31T08:09:25.196Z,95.07
2017-07-31T08:10:34.118Z,94.97
2017-07-31T08:11:43.392Z,93.62
2017-07-31T08:12:53.383Z,93.05
2017-07-31T08:14:02.961Z,94.97
2017-07-31T08:15:12.823Z,93.15
2017-07-31T08:16:22.032Z,93.33
2017-07-31T08:17:31.610Z,91.6
2017-07-31T08:18:41.394Z,90.3
2017-07-31T08:19:50.609Z,89.72
2017-07-31T08:20:59.821Z,88.95
2017-07-31T08:22:09.072Z,89.72
2017-07-31T08:23:18.302Z,88.47
2017-07-31T08:24:28.005Z,86.74
2017-07-31T08:25:37.547Z,88.67
2017-07-31T08:26:47.415Z,88.47
2017-07-31T08:27:56.961Z,88.18
2017-07-31T08:29:06.176Z,87.55
2017-07-31T08:30:16.014Z,87.84
2017-07-31T08:31:24.920Z,87.07
2017-07-31T08:32:33.815Z,87.65
2017-07-31T08:33:43.358Z,88.76
2017-07-31T08:34:52.893Z,89.29
2017-07-31T08:36:02.260Z,88.81
2017-07-31T08:37:11.793Z,86.98
2017-07-31T08:38:21.052Z,87.84
2017-07-31T08:39:30.262Z,87.94
2017-07-31T08:40:39.160Z,89.67
2017-07-31T08:41:48.520Z,87.36
2017-07-31T08:42:58.055Z,90.54
2017-07-31T08:44:07.589Z,87.07
2017-07-31T08:45:16.807Z,87.21
2017-07-31T08:46:26.340Z,87.98
2017-07-31T08:47:35.696Z,85.47
2017-07-31T08:48:45.235Z,83.45
2017-07-31T08:49:54.445Z,84.8
2017-07-31T08:51:03.664Z,84.99
2017-07-31T08:52:12.962Z,87.21
2017-07-31T08:53:22.544Z,85.96
2017-07-31T08:54:31.755Z,84.03
2017-07-31T08:55:40.654Z,84.12
2017-07-31T08:56:49.865Z,81.43
2017-07-31T08:58:00.068Z,82.39
2017-07-31T08:59:09.280Z,81.72
2017-07-31T09:00:18.843Z,81.14
2017-07-31T09:01:28.377Z,81.14
2017-07-31T09:02:37.916Z,81.76
2017-07-31T09:03:47.449Z,81.18
2017-07-31T09:04:56.438Z,82.34
2017-07-31T09:06:05.340Z,82.05
2017-07-31T09:07:14.563Z,81.27
2017-07-31T09:08:23.451Z,81.09
2017-07-31T09:09:33.364Z,80.6
2017-07-31T09:10:42.325Z,79.74
2017-07-31T09:11:51.564Z,78.58
2017-07-31T09:13:01.112Z,80.51
2017-07-31T09:14:10.968Z,81.37
2017-07-31T09:15:19.866Z,82.24
2017-07-31T09:16:29.140Z,79.87
2017-07-31T09:17:38.675Z,81.22
2017-07-31T09:18:47.892Z,81.7
2017-07-31T09:19:57.426Z,81.8
2017-07-31T09:21:06.970Z,81.12
2017-07-31T09:22:16.236Z,80.06
2017-07-31T09:23:25.825Z,80.06
2017-07-31T09:24:34.723Z,79.29
2017-07-31T09:25:44.256Z,78.42
2017-07-31T09:26:53.480Z,79.1
2017-07-31T09:28:02.750Z,78.81
2017-07-31T09:29:12.294Z,79.77
2017-07-31T09:30:21.191Z,79.68
2017-07-31T09:31:30.773Z,80.35
2017-07-31T09:32:40.314Z,80.26
2017-07-31T09:33:49.945Z,81.12
2017-07-31T09:34:59.155Z,79.97
2017-07-31T09:36:08.373Z,80.35
2017-07-31T09:37:17.600Z,79.87
2017-07-31T09:38:27.133Z,80.26
2017-07-31T09:39:36.247Z,79
2017-07-31T09:40:45.855Z,78.52
2017-07-31T09:41:54.756Z,79.04
2017-07-31T09:43:04.621Z,79.14
2017-07-31T09:44:14.497Z,79.24
2017-07-31T09:45:24.653Z,79.72
2017-07-31T09:46:33.863Z,80.2
2017-07-31T09:47:42.749Z,78.85
2017-07-31T09:48:52.301Z,78.08
2017-07-31T09:50:01.865Z,77.98
2017-07-31T09:51:11.451Z,77.88
2017-07-31T09:52:20.983Z,78.66
2017-07-31T09:53:30.195Z,78.66
2017-07-31T09:54:40.053Z,77.88
2017-07-31T09:55:49.293Z,77.78
2017-07-31T09:56:59.078Z,78.94
2017-07-31T09:58:08.306Z,79.81
2017-07-31T09:59:17.529Z,78.36
2017-07-31T10:00:26.743Z,78.75
2017-07-31T10:01:35.968Z,78.31
2017-07-31T10:02:45.355Z,78.21
2017-07-31T10:03:54.567Z,79.14
2017-07-31T10:05:03.780Z,78.89
2017-07-31T10:06:13.324Z,77.53
2017-07-31T10:07:22.529Z,78.02
2017-07-31T10:08:32.616Z,77.73
2017-07-31T10:09:42.531Z,76.95
2017-07-31T10:10:51.742Z,77.73
2017-07-31T10:12:00.685Z,77.05
2017-07-31T10:13:10.224Z,77.83
2017-07-31T10:14:20.083Z,78.5
2017-07-31T10:15:29.625Z,78.41
2017-07-31T10:16:38.851Z,78.41
2017-07-31T10:17:48.073Z,79.85
2017-07-31T10:18:57.286Z,79.95
2017-07-31T10:20:07.195Z,78.44
2017-07-31T10:21:17.052Z,76.9
2017-07-31T10:22:26.592Z,77.96
2017-07-31T10:23:35.806Z,77.28
2017-07-31T10:24:45.337Z,78.34
2017-07-31T10:25:54.377Z,78.06
2017-07-31T10:27:03.930Z,77.9
2017-07-31T10:28:13.168Z,76.84
2017-07-31T10:29:22.383Z,77.51
2017-07-31T10:30:31.927Z,75.68
2017-07-31T10:31:42.197Z,75.29
2017-07-31T10:32:51.459Z,76.26
2017-07-31T10:34:00.678Z,77.17
2017-07-31T10:35:10.538Z,76.68
2017-07-31T10:36:20.078Z,76.49
2017-07-31T10:37:29.291Z,75.62
2017-07-31T10:38:38.821Z,75.91
2017-07-31T10:39:47.708Z,76.01
2017-07-31T10:40:56.596Z,76.68
2017-07-31T10:42:05.818Z,76.68
2017-07-31T10:43:14.706Z,76.49
2017-07-31T10:44:23.591Z,77.55
2017-07-31T10:45:33.131Z,76.59
2017-07-31T10:46:42.667Z,77.75
2017-07-31T10:47:51.563Z,78.13
2017-07-31T10:49:01.101Z,76.49
2017-07-31T10:50:10.313Z,78.71
2017-07-31T10:51:19.575Z,77.59
2017-07-31T10:52:29.111Z,77.59
2017-07-31T10:53:38.983Z,75.89
2017-07-31T10:54:48.198Z,75.98
2017-07-31T10:55:57.091Z,77.63
2017-07-31T10:57:06.009Z,74.63
2017-07-31T10:58:15.551Z,75.79
2017-07-31T10:59:24.764Z,76.18
2017-07-31T11:00:33.670Z,75.31
2017-07-31T11:01:42.563Z,75.7
2017-07-31T11:02:52.283Z,75.7
2017-07-31T11:04:01.495Z,78.74
2017-07-31T11:05:11.355Z,75.05
2017-07-31T11:06:20.896Z,74.76
2017-07-31T11:07:30.130Z,75.24
2017-07-31T11:08:39.821Z,74.38
2017-07-31T11:09:49.360Z,74.76
2017-07-31T11:10:58.896Z,74.66
2017-07-31T11:12:08.763Z,76.12
2017-07-31T11:13:17.977Z,75.05
2017-07-31T11:14:27.512Z,73.79
2017-07-31T11:15:36.724Z,73.69
2017-07-31T11:16:46.271Z,74.28
2017-07-31T11:17:55.816Z,74.66
2017-07-31T11:19:05.027Z,74.66
2017-07-31T11:20:14.167Z,74.57
2017-07-31T11:21:23.059Z,74.86
2017-07-31T11:22:32.595Z,74.66
2017-07-31T11:23:41.810Z,74.08
2017-07-31T11:24:52.002Z,74.66
2017-07-31T11:26:00.946Z,74.86
2017-07-31T11:27:10.483Z,75.15
2017-07-31T11:28:19.698Z,73.89
2017-07-31T11:29:29.235Z,75.09
2017-07-31T11:30:38.125Z,73.54
2017-07-31T11:31:48.056Z,73.44
2017-07-31T11:32:57.589Z,73.25
2017-07-31T11:34:06.480Z,74.26
2017-07-31T11:35:16.011Z,73.25
2017-07-31T11:36:25.596Z,73.25
2017-07-31T11:37:34.960Z,73.35
2017-07-31T11:38:44.500Z,74.02
2017-07-31T11:39:53.716Z,73.35
2017-07-31T11:41:03.576Z,73.64
2017-07-31T11:42:13.439Z,73.83
2017-07-31T11:43:22.985Z,72.67
2017-07-31T11:44:32.201Z,73.35
2017-07-31T11:45:41.741Z,74.93
2017-07-31T11:46:50.633Z,73.73
2017-07-31T11:47:59.858Z,74.45
2017-07-31T11:49:09.570Z,73.19
2017-07-31T11:50:18.798Z,72.51
2017-07-31T11:51:28.984Z,71.44
2017-07-31T11:52:38.519Z,71.93
2017-07-31T11:53:48.385Z,71.5
2017-07-31T11:54:58.021Z,71.6
2017-07-31T11:56:07.881Z,71.8
2017-07-31T11:57:17.423Z,72.28
2017-07-31T11:58:26.651Z,72.96
2017-07-31T11:59:35.563Z,72.63
2017-07-31T12:00:44.469Z,73.6
2017-07-31T12:01:53.684Z,73.31
2017-07-31T12:03:03.543Z,72.92
2017-07-31T12:04:12.754Z,73.89
2017-07-31T12:05:21.642Z,73.99
2017-07-31T12:06:31.603Z,74.57
2017-07-31T12:07:40.816Z,73.6
2017-07-31T12:08:50.025Z,74.66
2017-07-31T12:09:58.918Z,74.86
2017-07-31T12:11:08.455Z,74.38
2017-07-31T12:12:17.349Z,73.89
2017-07-31T12:13:26.563Z,74.47
2017-07-31T12:14:35.773Z,73.89
2017-07-31T12:15:45.457Z,73.79
2017-07-31T12:16:54.674Z,74.7
2017-07-31T12:18:03.896Z,75.19
2017-07-31T12:19:12.786Z,75.38
2017-07-31T12:20:22.643Z,74.96
2017-07-31T12:21:31.858Z,74.38
2017-07-31T12:22:41.407Z,73.79
2017-07-31T12:23:50.352Z,74.47
2017-07-31T12:25:00.266Z,74.38
2017-07-31T12:26:09.490Z,75.24
2017-07-31T12:27:18.389Z,75.05
2017-07-31T12:28:27.934Z,73.89
2017-07-31T12:29:38.052Z,74.18
2017-07-31T12:30:47.314Z,73.79
2017-07-31T12:31:56.553Z,73.93
2017-07-31T12:33:06.098Z,72.86
2017-07-31T12:34:15.974Z,72.77
2017-07-31T12:35:25.664Z,73.28
2017-07-31T12:36:34.884Z,72.12
2017-07-31T12:37:44.095Z,71.64
2017-07-31T12:38:53.029Z,72.02
2017-07-31T12:40:02.248Z,70.41
2017-07-31T12:41:11.646Z,71.28
2017-07-31T12:42:21.189Z,70.8
2017-07-31T12:43:31.055Z,70.64
2017-07-31T12:44:40.919Z,70.35
2017-07-31T12:45:49.816Z,70.87
2017-07-31T12:46:59.663Z,68.63
2017-07-31T12:48:09.214Z,69.51
2017-07-31T12:49:19.087Z,69.8
2017-07-31T12:50:28.957Z,70
2017-07-31T12:51:38.921Z,69.41
2017-07-31T12:52:48.561Z,71.16
2017-07-31T12:53:58.229Z,70.73
2017-07-31T12:55:07.465Z,69.09
2017-07-31T12:56:17.694Z,67.86
2017-07-31T12:57:27.298Z,67.86
2017-07-31T12:58:36.896Z,68.79
2017-07-31T12:59:46.437Z,68.15
2017-07-31T13:00:55.657Z,67.92
2017-07-31T13:02:04.880Z,68.89
2017-07-31T13:03:14.422Z,69.24
2017-07-31T13:04:24.434Z,69.24
2017-07-31T13:05:33.363Z,68.66
2017-07-31T13:06:42.921Z,68.28
2017-07-31T13:07:51.824Z,68.76
2017-07-31T13:09:01.382Z,69.24
2017-07-31T13:10:10.755Z,68.37
2017-07-31T13:11:19.648Z,67.99
2017-07-31T13:12:29.190Z,68.86
2017-07-31T13:13:38.084Z,67.76
2017-07-31T13:14:47.305Z,67.21
2017-07-31T13:15:57.676Z,66.69
2017-07-31T13:17:07.671Z,67.21
2017-07-31T13:18:17.220Z,66.63
2017-07-31T13:19:26.770Z,66.63
2017-07-31T13:20:36.309Z,66.92
2017-07-31T13:21:46.002Z,68.76
2017-07-31T13:22:55.867Z,66.82
2017-07-31T13:24:05.085Z,65.98
2017-07-31T13:25:14.307Z,65.69
2017-07-31T13:26:23.207Z,65.79
2017-07-31T13:27:33.222Z,67.34
2017-07-31T13:28:42.765Z,68.21
2017-07-31T13:29:51.980Z,69.18
2017-07-31T13:31:01.520Z,68.99
2017-07-31T13:32:11.060Z,69.28
2017-07-31T13:33:20.447Z,69.18
2017-07-31T13:34:29.997Z,71.51
2017-07-31T13:35:39.229Z,68.51
2017-07-31T13:36:48.773Z,68.44
2017-07-31T13:37:58.011Z,68.89
2017-07-31T13:39:07.706Z,68.15
2017-07-31T13:40:16.937Z,68.99
2017-07-31T13:41:26.479Z,71.28
2017-07-31T13:42:36.038Z,69.93
2017-07-31T13:43:45.588Z,70.31
2017-07-31T13:44:54.920Z,72.16
2017-07-31T13:46:04.149Z,71.19
2017-07-31T13:47:13.691Z,69.44
2017-07-31T13:48:23.241Z,69.06
2017-07-31T13:49:32.458Z,69.48
2017-07-31T13:50:42.732Z,69.09
2017-07-31T13:51:52.274Z,69.8
2017-07-31T13:53:02.468Z,70.83
2017-07-31T13:54:11.692Z,71.45
2017-07-31T13:55:20.643Z,70.64
2017-07-31T13:56:30.339Z,71.51
2017-07-31T13:57:39.570Z,70.45
2017-07-31T13:58:48.470Z,71.12
2017-07-31T13:59:58.025Z,71.03
2017-07-31T14:01:07.569Z,69.38
2017-07-31T14:02:17.261Z,69.86
2017-07-31T14:03:26.497Z,68.51
2017-07-31T14:04:36.368Z,69.09
2017-07-31T14:05:45.595Z,69.09
2017-07-31T14:06:55.801Z,68.31
2017-07-31T14:08:05.196Z,68.99
2017-07-31T14:09:14.420Z,68.31
2017-07-31T14:10:23.316Z,69.24
2017-07-31T14:11:33.190Z,69.93
2017-07-31T14:12:43.074Z,69.34
2017-07-31T14:13:52.444Z,69.93
2017-07-31T14:15:01.671Z,71.09
2017-07-31T14:16:10.891Z,71.96
2017-07-31T14:17:19.789Z,69.83
2017-07-31T14:18:28.736Z,68.41
2017-07-31T14:19:38.084Z,68.99
2017-07-31T14:20:47.655Z,68.12
2017-07-31T14:21:57.550Z,68.63
2017-07-31T14:23:06.781Z,68.54
2017-07-31T14:24:16.343Z,68.35
2017-07-31T14:25:26.415Z,69.32
2017-07-31T14:26:35.972Z,67.41
2017-07-31T14:27:45.258Z,67.41
2017-07-31T14:28:54.828Z,67.54
2017-07-31T14:30:04.418Z,67.05
2017-07-31T14:31:14.028Z,67.99
2017-07-31T14:32:23.277Z,67.5
2017-07-31T14:33:32.843Z,67.18
2017-07-31T14:34:42.714Z,68.35
2017-07-31T14:35:52.299Z,69.12
2017-07-31T14:37:02.010Z,68.05
2017-07-31T14:38:11.607Z,69.41
2017-07-31T14:39:20.905Z,67.99
2017-07-31T14:40:30.129Z,67.89
2017-07-31T14:41:39.998Z,67.8
2017-07-31T14:42:49.373Z,68.48
2017-07-31T14:43:58.928Z,68.73
2017-07-31T14:45:08.808Z,68.54
2017-07-31T14:46:18.678Z,70
2017-07-31T14:47:27.893Z,70
2017-07-31T14:48:37.287Z,70.83
2017-07-31T14:49:47.802Z,69.96
2017-07-31T14:50:57.360Z,71.32
2017-07-31T14:52:06.976Z,71.09
2017-07-31T14:53:16.514Z,71.58
2017-07-31T14:54:25.415Z,71.38
2017-07-31T14:55:35.285Z,70.61